Time;durP1;ratioP1;P1;durP2;ratioP2;P2;SDS_P1;SDS_P2;PMS_P1;PMS_P2;Temp;Humidity;BMP_temperature;BMP_pressure;BME280_temperature;BME280_humidity;BME280_pressure;Samples;Min_cycle;Max_cycle;Signal;HPM_P1;HPM_P2
2022/02/15 00:00:44;;;;;;;21.42;20.42;;;8.90;78.80;;;;;;5032201;28;20766;-73
2022/02/15 00:03:11;;;;;;;21.67;20.67;;;8.90;78.70;;;;;;5036537;28;20237;-73
2022/02/15 00:05:37;;;;;;;19.98;18.98;;;8.80;82.30;;;;;;5036443;28;20220;-73
2022/02/15 00:08:05;;;;;;;19.90;18.90;;;8.70;80.60;;;;;;5036310;28;20203;-73
2022/02/15 00:10:32;;;;;;;19.70;18.80;;;8.70;80.00;;;;;;5036107;28;20334;-73
2022/02/15 00:13:02;;;;;;;20.15;19.15;;;8.80;79.80;;;;;;5036316;28;20284;-73
2022/02/15 00:15:29;;;;;;;19.40;18.50;;;8.70;79.50;;;;;;5036420;28;20197;-72
2022/02/15 00:17:57;;;;;;;20.05;19.05;;;8.70;80.40;;;;;;5036211;28;20292;-73
2022/02/15 00:20:25;;;;;;;20.20;19.20;;;8.60;80.20;;;;;;5035835;28;20717;-72
2022/02/15 00:22:52;;;;;;;21.33;20.08;;;8.60;80.30;;;;;;5035937;28;20202;-72
2022/02/15 00:25:20;;;;;;;21.10;19.90;;;8.60;83.80;;;;;;5036082;28;20289;-73
2022/02/15 00:27:47;;;;;;;21.15;20.15;;;8.70;81.30;;;;;;5035859;28;20201;-72
2022/02/15 00:30:15;;;;;;;23.50;22.30;;;8.70;80.40;;;;;;5035886;28;20290;-72
2022/02/15 00:32:43;;;;;;;19.60;18.70;;;8.80;79.90;;;;;;5036047;28;20284;-72
2022/02/15 00:35:11;;;;;;;20.20;19.20;;;8.70;80.00;;;;;;5036017;28;20659;-73
2022/02/15 00:37:38;;;;;;;20.63;19.63;;;8.60;81.00;;;;;;5035806;28;20201;-72
2022/02/15 00:40:07;;;;;;;20.27;19.27;;;8.70;80.40;;;;;;5035304;28;20228;-72
2022/02/15 00:42:34;;;;;;;21.30;20.20;;;8.80;79.60;;;;;;5035843;28;20295;-73
2022/02/15 00:45:01;;;;;;;21.27;20.17;;;8.70;79.70;;;;;;5035692;28;20192;-73
2022/02/15 00:47:28;;;;;;;21.27;20.17;;;8.60;80.00;;;;;;5035634;28;20205;-72
2022/02/15 00:49:55;;;;;;;21.30;20.20;;;8.60;80.10;;;;;;5035480;28;20208;-72
2022/02/15 00:52:23;;;;;;;21.00;20.00;;;8.60;79.80;;;;;;5035687;28;20699;-72
2022/02/15 00:54:50;;;;;;;21.20;20.00;;;8.60;80.00;;;;;;5035470;28;20197;-73
2022/02/15 00:57:17;;;;;;;20.55;19.55;;;8.50;80.50;;;;;;5035455;28;20200;-72
2022/02/15 00:59:44;;;;;;;21.10;20.00;;;8.50;80.80;;;;;;5035143;28;20233;-73
2022/02/15 01:02:11;;;;;;;20.58;19.58;;;8.60;80.80;;;;;;5035399;28;20222;-73
2022/02/15 01:04:38;;;;;;;20.13;19.15;;;8.50;80.80;;;;;;5035350;28;20201;-72
2022/02/15 01:07:05;;;;;;;20.65;19.65;;;8.40;80.70;;;;;;5035329;28;20205;-73
2022/02/15 01:09:34;;;;;;;21.08;19.98;;;8.30;80.70;;;;;;5035051;28;20565;-72
2022/02/15 01:12:01;;;;;;;21.10;20.00;;;8.40;80.60;;;;;;5034614;28;20584;-72
2022/02/15 01:14:28;;;;;;;20.55;19.45;;;8.50;80.20;;;;;;5035208;28;20205;-73
2022/02/15 01:16:55;;;;;;;21.08;19.98;;;8.50;80.20;;;;;;5035129;28;20288;-73
2022/02/15 01:19:22;;;;;;;21.92;20.70;;;8.40;80.30;;;;;;5034846;28;20223;-72
2022/02/15 01:21:49;;;;;;;21.20;20.20;;;8.40;80.50;;;;;;5034993;28;20319;-73
2022/02/15 01:24:16;;;;;;;21.90;20.73;;;8.30;80.60;;;;;;5034828;28;20568;-73
2022/02/15 01:26:44;;;;;;;20.90;19.90;;;8.30;80.70;;;;;;5034988;28;20200;-73
2022/02/15 01:29:11;;;;;;;21.30;20.20;;;8.30;80.70;;;;;;5034757;28;20627;-73
2022/02/15 01:31:38;;;;;;;21.45;20.25;;;8.30;80.50;;;;;;5034745;28;20308;-73
2022/02/15 01:34:05;;;;;;;20.90;19.80;;;8.30;80.60;;;;;;5034687;28;20209;-73
2022/02/15 01:36:32;;;;;;;21.00;19.90;;;8.20;81.00;;;;;;5034800;28;20210;-73
2022/02/15 01:38:59;;;;;;;20.17;19.17;;;8.20;81.00;;;;;;5034495;28;20233;-73
2022/02/15 01:41:25;;;;;;;20.88;19.88;;;8.20;80.70;;;;;;5034634;28;20316;-73
2022/02/15 01:43:54;;;;;;;21.20;20.10;;;8.20;80.80;;;;;;5034584;28;20683;-73
2022/02/15 01:46:21;;;;;;;21.35;19.92;;;8.10;81.00;;;;;;5034462;28;20207;-73
2022/02/15 01:48:48;;;;;;;19.92;18.92;;;8.00;81.20;;;;;;5034580;28;20198;-73
2022/02/15 01:51:15;;;;;;;20.25;19.25;;;8.00;81.40;;;;;;5034386;28;20573;-73
2022/02/15 01:53:42;;;;;;;20.90;19.70;;;8.10;81.20;;;;;;5034577;28;20288;-73
2022/02/15 01:56:11;;;;;;;20.70;19.70;;;8.00;81.40;;;;;;5034342;28;20732;-73
2022/02/15 01:58:39;;;;;;;21.50;20.17;;;8.00;81.40;;;;;;5034236;28;20207;-73
2022/02/15 02:01:07;;;;;;;19.35;18.45;;;8.00;81.00;;;;;;5034238;28;20676;-72
2022/02/15 02:03:34;;;;;;;20.25;19.25;;;8.00;81.10;;;;;;5034253;28;20667;-73
2022/02/15 02:06:00;;;;;;;20.25;19.05;;;8.00;81.90;;;;;;5034267;28;20683;-72
2022/02/15 02:08:30;;;;;;;20.27;19.17;;;7.90;82.10;;;;;;5034161;28;20285;-73
2022/02/15 02:10:57;;;;;;;20.52;19.48;;;7.90;83.10;;;;;;5033902;28;20478;-73
2022/02/15 02:13:24;;;;;;;20.75;19.65;;;7.80;82.40;;;;;;5034043;28;20281;-73
2022/02/15 02:15:51;;;;;;;20.58;19.58;;;7.80;82.10;;;;;;5033934;28;20567;-73
2022/02/15 02:18:20;;;;;;;21.25;20.15;;;7.80;82.10;;;;;;5033849;28;20211;-73
2022/02/15 02:20:48;;;;;;;20.42;19.42;;;7.80;82.00;;;;;;5033665;28;20256;-72
2022/02/15 02:23:18;;;;;;;20.70;19.60;;;7.70;82.00;;;;;;5033334;28;20291;-73
2022/02/15 02:25:45;;;;;;;20.40;19.20;;;7.70;82.60;;;;;;5033539;28;20655;-73
2022/02/15 02:28:12;;;;;;;21.25;20.10;;;7.70;83.10;;;;;;5033697;28;20283;-73
2022/02/15 02:30:39;;;;;;;20.90;19.80;;;7.60;83.50;;;;;;5033511;28;20214;-73
2022/02/15 02:33:07;;;;;;;20.00;18.90;;;7.70;82.60;;;;;;5033824;28;20251;-73
2022/02/15 02:35:35;;;;;;;20.60;19.58;;;7.60;82.40;;;;;;5033635;28;20701;-73
2022/02/15 02:38:02;;;;;;;20.35;19.35;;;7.60;82.30;;;;;;5033590;28;20688;-73
2022/02/15 02:40:31;;;;;;;20.10;19.10;;;7.60;82.50;;;;;;5033249;28;20256;-73
2022/02/15 02:42:57;;;;;;;20.38;19.38;;;7.70;82.10;;;;;;5033480;28;20204;-73
2022/02/15 02:45:24;;;;;;;19.65;18.55;;;7.60;82.10;;;;;;5033390;28;20200;-73
2022/02/15 02:47:53;;;;;;;20.42;19.42;;;7.70;82.10;;;;;;5033450;28;20208;-73
2022/02/15 02:50:24;;;;;;;20.77;19.55;;;7.70;81.80;;;;;;5033125;28;20666;-73
2022/02/15 02:52:51;;;;;;;20.45;19.25;;;7.60;81.90;;;;;;5033372;28;20262;-73
2022/02/15 02:55:18;;;;;;;20.95;19.85;;;7.70;81.90;;;;;;5033254;28;20248;-73
2022/02/15 02:57:46;;;;;;;20.27;19.17;;;7.70;82.10;;;;;;5033143;28;20214;-72
2022/02/15 03:00:16;;;;;;;19.90;18.90;;;7.60;82.00;;;;;;5032821;28;20256;-73
2022/02/15 03:02:45;;;;;;;20.17;19.17;;;7.60;83.60;;;;;;5033191;28;20201;-73
2022/02/15 03:05:12;;;;;;;20.20;19.20;;;7.50;84.10;;;;;;5033084;28;20692;-73
2022/02/15 03:07:39;;;;;;;19.35;18.45;;;7.50;83.90;;;;;;5032932;28;20207;-73
2022/02/15 03:10:08;;;;;;;20.30;19.30;;;7.50;83.00;;;;;;5032734;28;20665;-73
2022/02/15 03:12:35;;;;;;;21.10;19.65;;;7.50;83.00;;;;;;5032970;28;20196;-73
2022/02/15 03:15:04;;;;;;;20.92;19.77;;;7.50;82.70;;;;;;5032960;28;20235;-73
2022/02/15 03:17:31;;;;;;;19.77;18.77;;;7.50;82.60;;;;;;5032931;28;20243;-73
2022/02/15 03:19:58;;;;;;;20.50;19.30;;;7.60;82.20;;;;;;5032519;28;20221;-73
2022/02/15 03:22:25;;;;;;;21.40;20.30;;;7.70;82.10;;;;;;5032681;28;20577;-73
2022/02/15 03:24:53;;;;;;;21.20;20.10;;;7.70;82.00;;;;;;5032823;28;20208;-73
2022/02/15 03:27:20;;;;;;;21.90;20.58;;;7.70;82.00;;;;;;5032589;28;20194;-73
2022/02/15 03:29:47;;;;;;;20.65;19.45;;;7.80;81.10;;;;;;5032620;28;20280;-73
2022/02/15 03:32:15;;;;;;;20.70;19.50;;;7.80;81.20;;;;;;5032711;28;20257;-73
2022/02/15 03:34:42;;;;;;;20.30;19.15;;;7.90;80.70;;;;;;5032387;28;20205;-73
2022/02/15 03:37:09;;;;;;;23.02;21.70;;;7.80;80.70;;;;;;5032706;28;20212;-73
2022/02/15 03:39:36;;;;;;;21.45;20.15;;;7.80;81.00;;;;;;5032202;28;20257;-73
2022/02/15 03:44:48;;;;;;;22.13;20.73;;;7.80;81.00;;;;;;5032561;28;20193;-73
2022/02/15 03:47:17;;;;;;;20.98;19.88;;;7.70;81.00;;;;;;5032408;28;20669;-73
2022/02/15 03:49:44;;;;;;;20.63;19.52;;;7.90;80.50;;;;;;5032192;28;20294;-72
2022/02/15 03:52:11;;;;;;;22.85;21.65;;;7.80;81.10;;;;;;5032494;28;20226;-73
2022/02/15 03:54:38;;;;;;;21.67;20.27;;;7.90;80.70;;;;;;5032454;28;20559;-72
2022/02/15 03:57:05;;;;;;;21.65;20.15;;;8.00;80.60;;;;;;5032330;28;20194;-72
2022/02/15 03:59:32;;;;;;;20.48;19.23;;;8.00;79.80;;;;;;5032117;28;20199;-72
2022/02/15 04:01:59;;;;;;;20.92;19.73;;;8.00;80.00;;;;;;5032371;28;20744;-72
2022/02/15 04:04:27;;;;;;;21.85;20.65;;;7.90;80.30;;;;;;5032315;28;20202;-73
2022/02/15 04:06:54;;;;;;;22.27;21.08;;;8.00;80.00;;;;;;5032317;28;20678;-73
2022/02/15 04:09:21;;;;;;;21.52;20.23;;;8.10;79.50;;;;;;5032081;28;20289;-73
2022/02/15 04:11:48;;;;;;;22.77;21.48;;;8.00;79.70;;;;;;5032197;28;20229;-73
2022/02/15 04:14:15;;;;;;;20.98;19.60;;;8.10;79.70;;;;;;5032154;28;20200;-72
2022/02/15 04:16:42;;;;;;;22.88;21.25;;;8.10;79.60;;;;;;5032147;28;20206;-73
2022/02/15 04:19:09;;;;;;;21.10;20.00;;;8.10;79.50;;;;;;5032238;28;20209;-73
2022/02/15 04:21:37;;;;;;;21.65;20.45;;;8.00;79.50;;;;;;5032025;28;20582;-73
2022/02/15 04:24:05;;;;;;;21.88;20.67;;;8.00;79.60;;;;;;5031947;28;20313;-73
2022/02/15 04:26:32;;;;;;;22.80;21.70;;;8.00;79.70;;;;;;5032151;28;20204;-73
2022/02/15 04:28:59;;;;;;;21.23;19.98;;;7.90;79.80;;;;;;5031847;28;20562;-73
2022/02/15 04:31:25;;;;;;;23.08;21.73;;;8.00;79.90;;;;;;5032008;28;20217;-73
2022/02/15 04:33:52;;;;;;;22.10;20.77;;;7.90;80.20;;;;;;5031905;28;20200;-73
2022/02/15 04:36:19;;;;;;;21.67;20.27;;;8.10;79.60;;;;;;5032014;28;20194;-73
2022/02/15 04:38:47;;;;;;;22.65;21.15;;;8.10;79.40;;;;;;5032014;28;20215;-73
2022/02/15 04:41:14;;;;;;;21.98;20.77;;;8.10;79.20;;;;;;5031750;28;20231;-73
2022/02/15 04:43:41;;;;;;;21.00;19.80;;;8.10;79.20;;;;;;5031876;28;20244;-73
2022/02/15 04:46:08;;;;;;;21.75;20.65;;;8.10;78.90;;;;;;5031860;28;20205;-73
2022/02/15 04:48:35;;;;;;;22.58;21.33;;;8.10;79.00;;;;;;5035015;28;20762;-73
2022/02/15 04:51:02;;;;;;;21.75;20.33;;;8.10;78.80;;;;;;5035393;28;20217;-73
2022/02/15 04:53:29;;;;;;;22.48;21.17;;;8.10;78.90;;;;;;5035728;28;20212;-73
2022/02/15 04:55:59;;;;;;;23.23;21.80;;;8.00;79.00;;;;;;5035432;28;20283;-72
2022/02/15 04:58:26;;;;;;;23.08;21.38;;;8.10;78.90;;;;;;5035533;28;20205;-73
2022/02/15 05:00:53;;;;;;;23.55;22.17;;;8.00;79.00;;;;;;5035258;28;20238;-73
2022/02/15 05:03:20;;;;;;;24.27;22.67;;;8.00;79.10;;;;;;5035476;28;20204;-73
2022/02/15 05:05:47;;;;;;;22.85;21.15;;;8.10;78.70;;;;;;5035618;28;20199;-72
2022/02/15 05:08:14;;;;;;;22.20;20.70;;;8.00;79.10;;;;;;5035252;28;20291;-73
2022/02/15 05:10:41;;;;;;;24.58;23.15;;;8.00;79.40;;;;;;5034979;28;20220;-73
2022/02/15 05:13:11;;;;;;;24.23;22.92;;;8.00;80.30;;;;;;5035320;28;20212;-73
2022/02/15 05:15:38;;;;;;;21.95;20.77;;;8.00;80.10;;;;;;5035056;28;20616;-73
2022/02/15 05:18:06;;;;;;;21.88;20.48;;;8.00;79.40;;;;;;5035115;28;20286;-73
2022/02/15 05:20:33;;;;;;;23.52;21.98;;;8.10;79.00;;;;;;5034616;28;20685;-73
2022/02/15 05:23:00;;;;;;;22.98;21.58;;;7.90;79.30;;;;;;5034763;28;20199;-73
2022/02/15 05:25:27;;;;;;;22.13;20.80;;;8.00;79.80;;;;;;5034930;28;20251;-73
2022/02/15 05:27:55;;;;;;;22.90;21.50;;;8.00;79.30;;;;;;5034817;28;20221;-73
2022/02/15 05:30:23;;;;;;;22.73;21.13;;;8.00;80.50;;;;;;5034788;28;22643;-73
2022/02/15 05:32:50;;;;;;;22.52;21.13;;;8.00;80.00;;;;;;5034914;28;20204;-73
2022/02/15 05:35:17;;;;;;;21.80;20.42;;;8.00;79.70;;;;;;5034866;28;20211;-72
2022/02/15 05:37:45;;;;;;;21.42;19.92;;;8.10;79.30;;;;;;5034615;28;20292;-73
2022/02/15 05:40:13;;;;;;;21.83;20.63;;;8.10;79.40;;;;;;5034287;28;20222;-72
2022/02/15 05:42:41;;;;;;;22.20;20.88;;;8.00;79.50;;;;;;5034750;28;20662;-72
2022/02/15 05:45:09;;;;;;;20.88;19.67;;;8.00;80.50;;;;;;5034762;28;20202;-73
2022/02/15 05:47:37;;;;;;;22.98;21.60;;;7.80;88.00;;;;;;5034628;28;20290;-72
2022/02/15 05:52:50;;;;;;;21.65;20.45;;;7.80;82.10;;;;;;5034734;28;20200;-73
2022/02/15 05:55:17;;;;;;;21.90;20.60;;;7.90;80.90;;;;;;5034751;28;20330;-72
2022/02/15 05:57:44;;;;;;;23.00;21.70;;;7.90;80.30;;;;;;5034395;28;20212;-72
2022/02/15 06:00:12;;;;;;;22.50;21.15;;;7.90;82.60;;;;;;5033121;28;20196;-72
2022/02/15 06:02:41;;;;;;;22.55;21.35;;;7.90;81.00;;;;;;5034393;28;20197;-72
2022/02/15 06:05:08;;;;;;;21.83;20.52;;;7.80;81.10;;;;;;5034414;28;20194;-73
2022/02/15 06:07:36;;;;;;;21.10;20.00;;;7.80;83.80;;;;;;5034595;28;20208;-73
2022/02/15 06:10:03;;;;;;;22.60;21.38;;;7.80;82.50;;;;;;5033940;28;20279;-73
2022/02/15 06:12:30;;;;;;;22.15;20.90;;;7.90;81.70;;;;;;5034305;28;20677;-73
2022/02/15 06:14:57;;;;;;;22.20;21.10;;;7.90;80.90;;;;;;5034086;28;20202;-73
2022/02/15 06:17:24;;;;;;;24.52;22.90;;;7.90;80.90;;;;;;5034131;28;20208;-73
2022/02/15 06:19:52;;;;;;;21.95;20.75;;;7.80;81.10;;;;;;5033768;28;20753;-73
2022/02/15 06:22:19;;;;;;;21.60;20.40;;;7.90;82.00;;;;;;5033864;28;20571;-72
2022/02/15 06:24:46;;;;;;;22.13;20.55;;;7.90;81.00;;;;;;5034028;28;20197;-72
2022/02/15 06:27:13;;;;;;;22.70;21.40;;;8.00;80.60;;;;;;5033964;28;20201;-73
2022/02/15 06:29:40;;;;;;;21.73;20.52;;;8.00;80.40;;;;;;5033543;28;20211;-72
2022/02/15 06:32:07;;;;;;;22.20;21.00;;;8.00;80.20;;;;;;5033684;28;20304;-72
2022/02/15 06:34:34;;;;;;;22.20;20.80;;;7.90;80.50;;;;;;5033747;28;20205;-73
2022/02/15 06:37:02;;;;;;;21.58;20.30;;;8.10;80.20;;;;;;5033714;28;20200;-72
2022/02/15 06:39:29;;;;;;;21.15;20.15;;;8.10;80.00;;;;;;5033367;28;20236;-72
2022/02/15 06:41:56;;;;;;;22.63;21.20;;;8.10;79.90;;;;;;5033340;28;20229;-73
2022/02/15 06:44:23;;;;;;;24.60;22.92;;;8.00;80.10;;;;;;5033349;28;20738;-73
2022/02/15 06:46:50;;;;;;;23.40;22.00;;;8.10;80.80;;;;;;5033466;28;20284;-72
2022/02/15 06:49:17;;;;;;;22.55;21.42;;;8.00;81.20;;;;;;5033227;28;20198;-72
2022/02/15 06:51:46;;;;;;;23.58;22.27;;;8.20;80.00;;;;;;5033529;28;20210;-73
2022/02/15 06:54:15;;;;;;;22.80;21.50;;;8.20;79.60;;;;;;5033386;28;20272;-73
2022/02/15 06:56:42;;;;;;;23.63;22.13;;;8.20;79.80;;;;;;5033177;28;20285;-73
2022/02/15 06:59:10;;;;;;;23.55;22.05;;;8.20;80.00;;;;;;5033032;28;20248;-73
2022/02/15 07:01:39;;;;;;;23.95;22.45;;;8.20;79.90;;;;;;5033282;28;20248;-73
2022/02/15 07:04:06;;;;;;;24.17;22.85;;;8.20;80.10;;;;;;5033348;28;20652;-73
2022/02/15 07:06:33;;;;;;;23.08;21.75;;;8.20;80.80;;;;;;5033105;28;20562;-72
2022/02/15 07:09:00;;;;;;;22.55;21.25;;;8.20;80.90;;;;;;5033035;28;20232;-72
2022/02/15 07:11:28;;;;;;;23.52;22.23;;;8.20;81.20;;;;;;5032499;28;20655;-72
2022/02/15 07:13:55;;;;;;;21.63;20.38;;;8.20;81.50;;;;;;5033024;28;20204;-73
2022/02/15 07:16:22;;;;;;;22.10;21.10;;;8.20;82.40;;;;;;5033156;28;20722;-72
2022/02/15 07:18:49;;;;;;;23.10;21.92;;;8.20;82.70;;;;;;5033005;28;20197;-73
2022/02/15 07:21:17;;;;;;;22.42;21.30;;;8.20;84.00;;;;;;5032610;28;20707;-72
2022/02/15 07:23:44;;;;;;;23.77;22.48;;;8.20;85.10;;;;;;5032632;28;20198;-73
2022/02/15 07:26:11;;;;;;;23.70;22.20;;;8.30;86.10;;;;;;5032806;28;20287;-73
2022/02/15 07:28:40;;;;;;;22.90;21.55;;;8.40;85.60;;;;;;5032531;28;20292;-72
2022/02/15 07:31:07;;;;;;;23.33;21.83;;;8.40;84.90;;;;;;5032627;28;20269;-72
2022/02/15 07:33:33;;;;;;;24.05;22.75;;;8.40;84.30;;;;;;5032845;28;20207;-72
2022/02/15 07:36:00;;;;;;;23.10;21.80;;;8.30;84.60;;;;;;5032708;28;20200;-73
2022/02/15 07:38:27;;;;;;;23.70;21.92;;;8.40;83.80;;;;;;5032396;28;20284;-73
2022/02/15 07:40:54;;;;;;;24.17;22.52;;;8.40;83.00;;;;;;5032312;28;20590;-73
2022/02/15 07:43:21;;;;;;;24.33;22.83;;;8.40;83.20;;;;;;5032684;28;20208;-73
2022/02/15 07:45:49;;;;;;;23.60;22.10;;;8.40;83.00;;;;;;5032525;28;20202;-73
2022/02/15 07:48:16;;;;;;;24.60;22.98;;;8.50;83.00;;;;;;5032365;28;20237;-73
2022/02/15 07:50:43;;;;;;;23.48;22.27;;;8.50;82.50;;;;;;5032203;28;20762;-73
2022/02/15 07:53:10;;;;;;;24.92;23.63;;;8.40;84.50;;;;;;5032616;28;20204;-73
2022/02/15 07:55:37;;;;;;;24.52;23.10;;;8.40;83.10;;;;;;5032497;28;20202;-73
2022/02/15 07:58:04;;;;;;;23.42;21.77;;;8.40;83.40;;;;;;5032445;28;20194;-73
2022/02/15 08:00:31;;;;;;;23.30;22.00;;;8.50;82.80;;;;;;5032291;28;20733;-73
2022/02/15 08:02:59;;;;;;;23.45;22.25;;;8.40;82.50;;;;;;5032372;28;20310;-73
2022/02/15 08:05:28;;;;;;;24.02;22.83;;;8.40;82.50;;;;;;5032368;28;20280;-73
2022/02/15 08:07:56;;;;;;;23.70;22.30;;;8.40;82.10;;;;;;5032339;28;20289;-73
2022/02/15 08:10:25;;;;;;;24.55;22.92;;;8.50;82.00;;;;;;5031984;28;20224;-73
2022/02/15 08:12:55;;;;;;;23.65;22.20;;;8.60;82.00;;;;;;5032331;28;20206;-73
2022/02/15 08:15:23;;;;;;;23.33;21.90;;;8.60;82.30;;;;;;5032227;28;20570;-73
2022/02/15 08:17:50;;;;;;;21.70;20.70;;;8.70;81.60;;;;;;5032155;28;20656;-73
2022/02/15 08:20:19;;;;;;;24.42;23.08;;;8.80;80.50;;;;;;5031925;28;20205;-73
2022/02/15 08:22:46;;;;;;;25.13;23.70;;;8.80;80.70;;;;;;5034022;28;20560;-73
2022/02/15 08:25:13;;;;;;;23.15;21.85;;;8.80;80.40;;;;;;5036250;28;20347;-73
2022/02/15 08:27:40;;;;;;;23.08;21.77;;;9.00;80.10;;;;;;5035671;28;20200;-73
2022/02/15 08:30:08;;;;;;;23.42;22.05;;;9.20;79.70;;;;;;5035980;28;20292;-73
2022/02/15 08:32:35;;;;;;;23.88;22.58;;;9.20;78.60;;;;;;5036144;28;20193;-73
2022/02/15 08:35:02;;;;;;;25.67;23.95;;;9.10;78.70;;;;;;5036124;28;20202;-73
2022/02/15 08:37:32;;;;;;;22.85;21.55;;;9.10;78.70;;;;;;5035952;28;20194;-73
2022/02/15 08:39:59;;;;;;;23.15;22.05;;;9.30;78.00;;;;;;5035674;28;20259;-73
2022/02/15 08:42:26;;;;;;;22.55;21.45;;;9.30;78.30;;;;;;5035802;28;20225;-73
2022/02/15 08:44:53;;;;;;;22.73;21.33;;;9.20;77.90;;;;;;5035740;28;20223;-73
2022/02/15 08:47:21;;;;;;;23.80;22.50;;;9.30;77.40;;;;;;5035535;28;20686;-72
2022/02/15 08:49:51;;;;;;;25.27;23.60;;;9.40;77.40;;;;;;5035569;28;20201;-72
2022/02/15 08:52:20;;;;;;;23.70;22.27;;;9.40;77.10;;;;;;5035608;28;20254;-73
2022/02/15 08:54:49;;;;;;;23.98;22.35;;;9.40;77.00;;;;;;5035674;28;20202;-73
2022/02/15 08:57:16;;;;;;;24.35;22.95;;;9.30;78.40;;;;;;5035456;28;20285;-73
2022/02/15 08:59:43;;;;;;;22.08;20.80;;;9.40;77.70;;;;;;5035243;28;20667;-73
2022/02/15 09:02:10;;;;;;;22.48;21.10;;;9.50;77.50;;;;;;5035473;28;20228;-73
2022/02/15 09:04:37;;;;;;;23.60;22.40;;;9.50;76.70;;;;;;5035397;28;20204;-73
2022/02/15 09:07:06;;;;;;;21.50;20.48;;;9.60;76.10;;;;;;5035329;28;20687;-73
2022/02/15 09:09:34;;;;;;;22.90;21.80;;;9.50;76.20;;;;;;5035156;28;20703;-73
2022/02/15 09:12:03;;;;;;;22.50;21.33;;;9.60;76.10;;;;;;5035248;28;20210;-72
2022/02/15 09:14:30;;;;;;;21.93;20.70;;;9.60;76.10;;;;;;5035251;28;20204;-73
2022/02/15 09:16:59;;;;;;;25.97;24.87;;;9.80;75.50;;;;;;5035082;28;20464;-73
2022/02/15 09:19:26;;;;;;;24.27;23.07;;;9.70;75.80;;;;;;5034942;28;20968;-73
2022/02/15 09:21:53;;;;;;;22.50;21.30;;;9.70;75.70;;;;;;5034944;28;20542;-73
2022/02/15 09:24:20;;;;;;;21.98;20.77;;;9.80;75.30;;;;;;5034847;28;20555;-73
2022/02/15 09:26:47;;;;;;;21.60;20.30;;;9.60;74.80;;;;;;5034976;28;20660;-73
2022/02/15 09:29:17;;;;;;;22.15;21.05;;;9.50;74.80;;;;;;5034794;28;20693;-73
2022/02/15 09:31:45;;;;;;;21.90;20.70;;;9.30;75.60;;;;;;5034909;28;20218;-73
2022/02/15 09:34:12;;;;;;;22.40;21.20;;;9.30;75.80;;;;;;5034564;28;20226;-73
2022/02/15 09:36:40;;;;;;;22.10;20.90;;;9.10;76.20;;;;;;5034795;28;20197;-73
2022/02/15 09:39:09;;;;;;;22.10;21.00;;;9.30;76.20;;;;;;5034464;28;20622;-73
2022/02/15 09:41:35;;;;;;;22.45;21.35;;;9.40;75.50;;;;;;5034681;28;20586;-73
2022/02/15 09:44:03;;;;;;;24.05;22.45;;;9.40;75.40;;;;;;5034845;28;20289;-73
2022/02/15 09:46:32;;;;;;;22.80;21.60;;;9.50;75.50;;;;;;5034673;28;20193;-73
2022/02/15 09:49:01;;;;;;;24.13;22.92;;;9.60;74.80;;;;;;5034524;28;20251;-73
2022/02/15 09:51:29;;;;;;;23.15;22.05;;;9.70;74.60;;;;;;5034594;28;20683;-72
2022/02/15 09:53:56;;;;;;;23.13;21.83;;;9.90;73.50;;;;;;5034366;28;20671;-72
2022/02/15 09:56:23;;;;;;;22.55;21.35;;;9.90;73.30;;;;;;5034408;28;20204;-73
2022/02/15 09:58:50;;;;;;;23.97;22.57;;;9.90;72.90;;;;;;5034359;28;20561;-73
2022/02/15 10:01:18;;;;;;;23.60;22.40;;;10.00;72.40;;;;;;5034029;28;20565;-72
2022/02/15 10:03:50;;;;;;;22.83;21.73;;;10.30;71.70;;;;;;5034316;28;20451;-73
2022/02/15 10:06:17;;;;;;;23.47;22.07;;;10.30;71.50;;;;;;5034258;28;20539;-72
2022/02/15 10:08:46;;;;;;;23.60;22.33;;;10.30;70.80;;;;;;5034031;28;20795;-73
2022/02/15 10:11:14;;;;;;;22.97;21.87;;;10.30;70.30;;;;;;5033969;28;20971;-72
2022/02/15 10:13:43;;;;;;;22.17;21.00;;;10.30;69.90;;;;;;5034140;28;20494;-73
2022/02/15 10:16:10;;;;;;;23.57;22.37;;;10.10;70.20;;;;;;5034035;28;20526;-73
2022/02/15 10:18:38;;;;;;;22.97;21.60;;;9.90;69.50;;;;;;5034037;28;20859;-73
2022/02/15 10:21:06;;;;;;;24.45;23.25;;;10.10;69.40;;;;;;5033933;28;20559;-72
2022/02/15 10:23:34;;;;;;;22.30;21.03;;;10.10;68.30;;;;;;5033783;28;20226;-73
2022/02/15 10:26:04;;;;;;;23.90;22.40;;;10.20;67.70;;;;;;5033793;28;20972;-73
2022/02/15 10:28:32;;;;;;;23.63;22.33;;;10.30;67.80;;;;;;5033721;28;20452;-72
2022/02/15 10:31:00;;;;;;;22.87;21.67;;;10.50;67.40;;;;;;5033509;28;20483;-73
2022/02/15 10:33:30;;;;;;;22.53;21.27;;;10.60;67.10;;;;;;5033666;28;20543;-73
2022/02/15 10:35:58;;;;;;;23.33;22.03;;;10.70;66.60;;;;;;5033486;28;20460;-73
2022/02/15 10:38:32;;;;;;;24.00;22.60;;;10.70;66.50;;;;;;5033576;28;20455;-72
2022/02/15 10:41:01;;;;;;;22.43;21.13;;;10.60;65.80;;;;;;5033308;28;20460;-72
2022/02/15 10:43:29;;;;;;;23.73;22.53;;;10.70;65.40;;;;;;5033598;28;20480;-73
2022/02/15 10:45:56;;;;;;;23.60;22.30;;;10.80;65.30;;;;;;5032665;28;20490;-73
2022/02/15 10:48:31;;;;;;;24.07;22.67;;;10.80;65.30;;;;;;5033427;28;20546;-73
2022/02/15 10:50:59;;;;;;;23.70;22.40;;;10.80;64.50;;;;;;5033056;28;20543;-72
2022/02/15 10:53:26;;;;;;;24.10;22.80;;;10.70;64.70;;;;;;5033389;28;20444;-73
2022/02/15 10:55:56;;;;;;;23.00;21.80;;;10.40;65.00;;;;;;5033286;28;20449;-73
2022/02/15 10:58:24;;;;;;;23.83;22.57;;;10.50;65.10;;;;;;5033245;28;20539;-73
2022/02/15 11:00:51;;;;;;;22.63;21.33;;;10.50;65.00;;;;;;5033139;28;20876;-73
2022/02/15 11:03:21;;;;;;;24.00;22.80;;;10.50;64.90;;;;;;5033002;28;20480;-73
2022/02/15 11:05:48;;;;;;;25.10;23.70;;;10.50;65.00;;;;;;5033143;28;20509;-73
2022/02/15 11:08:16;;;;;;;24.37;22.43;;;10.30;65.20;;;;;;5033131;28;20954;-72
2022/02/15 11:10:49;;;;;;;22.60;21.40;;;10.30;65.30;;;;;;5032895;28;20559;-73
2022/02/15 11:13:17;;;;;;;22.40;21.20;;;10.10;65.50;;;;;;5033043;28;20540;-74
2022/02/15 11:15:51;;;;;;;22.10;21.00;;;10.20;65.90;;;;;;5032900;28;20458;-73
2022/02/15 11:18:28;;;;;;;22.10;20.80;;;10.20;65.40;;;;;;5032789;28;20458;-73
2022/02/15 11:20:56;;;;;;;21.80;20.60;;;10.10;65.60;;;;;;5032697;28;20534;-72
2022/02/15 11:23:24;;;;;;;22.20;20.93;;;10.20;65.20;;;;;;5032595;28;20562;-72
2022/02/15 11:26:04;;;;;;;22.27;21.17;;;10.20;64.90;;;;;;5032726;28;20532;-72
2022/02/15 11:28:33;;;;;;;21.63;20.43;;;10.20;63.70;;;;;;5032495;28;20579;-73
2022/02/15 11:31:02;;;;;;;24.40;23.08;;;10.20;63.50;;;;;;5032543;28;20482;-72
2022/02/15 11:33:31;;;;;;;23.77;22.48;;;10.20;63.90;;;;;;5032785;28;20190;-73
2022/02/15 11:36:04;;;;;;;22.80;21.40;;;10.20;63.70;;;;;;5032692;28;20236;-73
2022/02/15 11:38:30;;;;;;;22.08;20.88;;;9.90;64.60;;;;;;5032569;28;20545;-73
2022/02/15 11:41:00;;;;;;;22.03;20.90;;;9.90;64.90;;;;;;5032345;28;20277;-73
2022/02/15 11:43:28;;;;;;;22.52;21.33;;;9.80;65.60;;;;;;5032437;28;20994;-73
2022/02/15 11:45:56;;;;;;;23.00;21.80;;;9.90;65.10;;;;;;5032512;28;20297;-73
2022/02/15 11:48:34;;;;;;;22.27;21.07;;;10.10;64.50;;;;;;5032413;28;20197;-73
2022/02/15 11:51:01;;;;;;;21.53;20.33;;;10.10;63.60;;;;;;5032270;28;20974;-73
2022/02/15 11:53:29;;;;;;;21.40;20.20;;;10.10;63.00;;;;;;5032430;28;20523;-73
2022/02/15 11:55:58;;;;;;;21.63;20.50;;;10.00;63.20;;;;;;5032310;28;20686;-73
2022/02/15 11:58:25;;;;;;;22.42;21.23;;;9.90;63.10;;;;;;5032248;28;20452;-73
2022/02/15 12:00:52;;;;;;;22.00;20.77;;;9.90;61.70;;;;;;5031863;28;20228;-73
2022/02/15 12:03:21;;;;;;;20.63;19.70;;;9.80;62.20;;;;;;5032262;28;20218;-73
2022/02/15 12:05:48;;;;;;;23.45;21.95;;;9.90;63.00;;;;;;5032211;28;20870;-73
2022/02/15 12:08:22;;;;;;;21.50;20.30;;;10.10;62.20;;;;;;5032135;28;20212;-73
2022/02/15 12:10:50;;;;;;;22.20;21.20;;;10.20;61.00;;;;;;5031996;28;20471;-73
2022/02/15 12:13:19;;;;;;;23.15;22.05;;;10.40;60.50;;;;;;5032319;28;20194;-73
2022/02/15 12:15:47;;;;;;;24.00;22.50;;;10.40;60.50;;;;;;5032137;28;20205;-73
2022/02/15 12:18:14;;;;;;;23.50;22.20;;;10.40;60.70;;;;;;5032081;28;20463;-73
2022/02/15 12:20:45;;;;;;;23.20;22.00;;;10.50;60.80;;;;;;5031772;28;20469;-73
2022/02/15 12:23:12;;;;;;;22.80;21.50;;;10.60;60.30;;;;;;5032006;28;20516;-73
2022/02/15 12:25:46;;;;;;;22.17;20.97;;;10.60;60.70;;;;;;5032111;28;20836;-73
2022/02/15 12:28:14;;;;;;;22.30;21.10;;;10.70;60.70;;;;;;5031983;28;20496;-73
2022/02/15 12:30:45;;;;;;;25.27;23.67;;;10.80;60.60;;;;;;5031890;28;20475;-73
2022/02/15 12:33:12;;;;;;;24.37;22.97;;;10.90;60.30;;;;;;5032197;28;20491;-73
2022/02/15 12:35:39;;;;;;;22.90;21.70;;;10.90;61.00;;;;;;5032202;28;20540;-73
2022/02/15 12:38:07;;;;;;;25.00;23.40;;;10.90;60.30;;;;;;5031963;28;20451;-73
2022/02/15 12:40:35;;;;;;;24.00;22.70;;;10.80;62.00;;;;;;5031643;28;20481;-73
2022/02/15 12:43:04;;;;;;;22.87;21.53;;;10.80;61.10;;;;;;5032028;28;20484;-73